createdAt,value
2023-12-30T00:00:18.239Z,0.60
2023-12-30T00:01:08.547Z,0.70
2023-12-30T00:02:08.352Z,1.00
2023-12-30T00:03:08.372Z,0.60
2023-12-30T00:04:08.483Z,0.70
2023-12-30T00:05:08.453Z,0.60
2023-12-30T00:06:08.599Z,0.60
2023-12-30T00:07:08.563Z,0.70
2023-12-30T00:08:08.321Z,0.80
2023-12-30T00:09:08.298Z,0.60
2023-12-30T00:10:08.342Z,0.70
2023-12-30T00:11:08.348Z,0.80
2023-12-30T00:12:08.337Z,0.70
2023-12-30T00:13:08.321Z,0.60
2023-12-30T00:14:08.428Z,0.60
2023-12-30T00:15:08.268Z,0.60
2023-12-30T00:16:08.236Z,0.50
2023-12-30T00:17:08.339Z,0.90
2023-12-30T00:18:08.429Z,0.80
2023-12-30T00:19:08.288Z,0.60
2023-12-30T00:20:08.311Z,0.60
2023-12-30T00:21:08.150Z,0.80
2023-12-30T00:22:08.195Z,1.00
2023-12-30T00:23:08.277Z,0.90
2023-12-30T00:24:08.098Z,0.90
2023-12-30T00:25:08.159Z,0.70
2023-12-30T00:26:08.160Z,0.80
2023-12-30T00:27:08.170Z,0.70
2023-12-30T00:28:08.151Z,0.70
2023-12-30T00:29:08.201Z,0.60
2023-12-30T00:30:08.129Z,0.70
2023-12-30T00:31:08.237Z,0.70
2023-12-30T00:32:08.186Z,0.70
2023-12-30T00:33:08.309Z,1.00
2023-12-30T00:34:08.192Z,0.90
2023-12-30T00:35:08.240Z,0.60
2023-12-30T00:36:08.000Z,0.70
2023-12-30T00:37:08.023Z,0.70
2023-12-30T00:38:19.518Z,0.90
2023-12-30T00:42:43.916Z,1.00
2023-12-30T00:43:52.338Z,0.70
2023-12-30T00:44:44.667Z,1.00
2023-12-30T00:45:52.253Z,0.50
2023-12-30T00:46:44.635Z,0.70
2023-12-30T00:47:55.027Z,0.70
2023-12-30T00:48:57.250Z,0.90
2023-12-30T00:49:44.664Z,0.70
2023-12-30T00:50:52.182Z,0.80
2023-12-30T00:51:44.578Z,0.90
2023-12-30T00:52:53.258Z,0.70
2023-12-30T00:53:53.603Z,0.80
2023-12-30T00:54:53.188Z,0.60
2023-12-30T00:55:54.836Z,0.70
2023-12-30T00:56:44.603Z,0.70
2023-12-30T00:57:53.892Z,1.00
2023-12-30T00:58:44.633Z,0.60
2023-12-30T00:59:44.617Z,1.20
2023-12-30T01:00:44.505Z,0.80
2023-12-30T01:01:44.553Z,0.70
2023-12-30T01:02:52.053Z,0.80
2023-12-30T01:03:44.633Z,0.80
2023-12-30T01:04:53.708Z,0.90
2023-12-30T01:05:52.076Z,0.70
2023-12-30T01:06:44.438Z,0.80
2023-12-30T01:07:52.061Z,0.80
2023-12-30T01:08:52.064Z,0.70
2023-12-30T01:09:44.384Z,0.70
2023-12-30T01:10:44.465Z,0.70
2023-12-30T01:11:44.469Z,0.70
2023-12-30T01:12:51.975Z,0.80
2023-12-30T01:13:52.210Z,0.90
2023-12-30T01:14:51.926Z,0.70
2023-12-30T01:15:52.042Z,1.10
2023-12-30T01:16:51.979Z,0.80
2023-12-30T01:17:52.041Z,0.60
2023-12-30T01:19:56.400Z,0.60
2023-12-30T01:20:57.259Z,0.70
2023-12-30T01:22:04.847Z,0.90
2023-12-30T01:22:57.214Z,0.70
2023-12-30T01:30:02.688Z,0.70
2023-12-30T01:32:15.589Z,0.80
2023-12-30T01:33:16.507Z,0.80
2023-12-30T01:34:16.616Z,0.90
2023-12-30T01:35:16.384Z,0.70
2023-12-30T01:36:16.444Z,0.80
2023-12-30T01:37:16.509Z,0.90
2023-12-30T01:38:16.528Z,0.60
2023-12-30T01:39:16.276Z,0.60
2023-12-30T01:40:16.291Z,0.40
2023-12-30T01:41:16.395Z,0.80
2023-12-30T01:42:16.314Z,0.60
2023-12-30T01:43:16.317Z,0.70
2023-12-30T01:44:16.303Z,0.70
2023-12-30T01:45:16.334Z,0.70
2023-12-30T01:46:16.221Z,0.70
2023-12-30T01:47:16.723Z,0.80
2023-12-30T01:48:16.321Z,0.70
2023-12-30T01:49:16.383Z,0.70
2023-12-30T01:50:16.254Z,0.70
2023-12-30T01:51:24.686Z,0.70
2023-12-30T01:52:16.292Z,0.70
2023-12-30T01:53:16.266Z,0.70
2023-12-30T01:54:16.105Z,0.70
2023-12-30T01:55:16.214Z,0.90
2023-12-30T01:56:16.152Z,0.70
2023-12-30T01:57:16.352Z,0.60
2023-12-30T01:58:16.103Z,0.70
2023-12-30T01:59:16.102Z,0.70
2023-12-30T02:00:16.067Z,0.70
2023-12-30T02:01:16.108Z,0.70
2023-12-30T02:02:16.167Z,1.20
2023-12-30T02:03:16.108Z,0.70
2023-12-30T02:04:16.030Z,0.70
2023-12-30T02:05:16.884Z,0.60
2023-12-30T02:06:16.008Z,1.00
2023-12-30T02:07:16.191Z,0.80
2023-12-30T02:08:16.127Z,0.70
2023-12-30T02:09:15.980Z,0.50
2023-12-30T02:10:15.998Z,0.60
2023-12-30T02:11:16.079Z,0.60
2023-12-30T02:12:16.027Z,1.00
2023-12-30T02:13:15.930Z,0.70
2023-12-30T02:14:16.009Z,0.60
2023-12-30T02:15:16.025Z,0.90
2023-12-30T02:16:15.905Z,0.50
2023-12-30T02:17:16.300Z,0.60
2023-12-30T02:18:16.019Z,0.50
2023-12-30T02:19:15.940Z,0.60
2023-12-30T02:20:15.829Z,0.50
2023-12-30T02:21:15.814Z,0.90
2023-12-30T02:22:16.029Z,0.70
2023-12-30T02:23:15.929Z,0.70
2023-12-30T02:24:15.788Z,0.60
2023-12-30T02:25:15.882Z,0.90
2023-12-30T02:26:15.838Z,0.60
2023-12-30T02:27:15.819Z,0.50
2023-12-30T02:28:16.008Z,0.70
2023-12-30T02:29:15.916Z,0.60
2023-12-30T02:30:15.814Z,0.60
2023-12-30T02:31:15.861Z,0.60
2023-12-30T02:32:15.825Z,0.80
2023-12-30T02:33:15.765Z,0.60
2023-12-30T02:34:15.929Z,0.60
2023-12-30T02:35:15.776Z,0.60
2023-12-30T02:36:15.698Z,0.60
2023-12-30T02:37:15.842Z,0.70
2023-12-30T02:38:15.764Z,0.70
2023-12-30T02:39:15.710Z,0.70
2023-12-30T02:40:15.754Z,0.70
2023-12-30T02:41:15.725Z,0.60
2023-12-30T02:42:15.776Z,1.00
2023-12-30T02:43:15.664Z,0.50
2023-12-30T02:44:15.756Z,0.70
2023-12-30T02:45:15.653Z,0.60
2023-12-30T02:46:15.694Z,0.70
2023-12-30T02:47:15.742Z,0.60
2023-12-30T02:48:15.614Z,0.60
2023-12-30T02:49:15.654Z,0.80
2023-12-30T02:50:15.565Z,0.70
2023-12-30T02:51:25.701Z,0.70
2023-12-30T02:52:23.274Z,0.80
2023-12-30T02:54:27.723Z,0.70
2023-12-30T02:55:28.594Z,0.70
2023-12-30T02:56:28.605Z,0.60
2023-12-30T02:57:28.727Z,0.80
2023-12-30T02:58:28.496Z,0.80
2023-12-30T02:59:28.410Z,0.80
2023-12-30T03:00:28.543Z,0.70
2023-12-30T03:01:28.533Z,0.90
2023-12-30T03:02:28.513Z,0.70
2023-12-30T03:03:28.478Z,0.80
2023-12-30T03:04:28.681Z,0.50
2023-12-30T03:05:28.365Z,0.80
2023-12-30T03:06:28.287Z,0.70
2023-12-30T03:07:28.371Z,0.70
2023-12-30T03:08:28.422Z,0.90
2023-12-30T03:09:28.386Z,0.80
2023-12-30T03:10:28.467Z,0.70
2023-12-30T03:11:28.396Z,0.70
2023-12-30T03:12:28.298Z,0.70
2023-12-30T03:13:28.381Z,0.70
2023-12-30T03:14:38.996Z,0.90
2023-12-30T03:15:28.523Z,0.90
2023-12-30T03:16:28.593Z,0.60
2023-12-30T03:17:28.484Z,0.80
2023-12-30T03:18:28.338Z,0.80
2023-12-30T03:19:28.311Z,0.80
2023-12-30T03:20:28.491Z,0.70
2023-12-30T03:21:28.209Z,0.70
2023-12-30T03:22:28.474Z,0.60
2023-12-30T03:23:28.377Z,0.80
2023-12-30T03:24:28.259Z,0.60
2023-12-30T03:25:28.426Z,0.60
2023-12-30T03:26:28.408Z,0.70
2023-12-30T03:27:28.328Z,0.70
2023-12-30T03:28:28.330Z,0.80
2023-12-30T03:29:28.241Z,0.90
2023-12-30T03:30:28.211Z,0.70
2023-12-30T03:31:28.582Z,0.70
2023-12-30T03:32:28.353Z,0.70
2023-12-30T03:33:28.224Z,0.80
2023-12-30T03:34:28.255Z,0.60
2023-12-30T03:35:28.396Z,0.60
2023-12-30T03:36:28.224Z,0.60
2023-12-30T03:37:28.489Z,0.60
2023-12-30T03:38:28.238Z,0.60
2023-12-30T03:39:28.269Z,0.70
2023-12-30T03:40:28.248Z,0.80
2023-12-30T03:41:28.325Z,1.00
2023-12-30T03:42:28.172Z,0.70
2023-12-30T03:43:28.255Z,0.60
2023-12-30T03:44:28.279Z,0.60
2023-12-30T03:45:28.270Z,0.30
2023-12-30T03:46:28.421Z,0.70
2023-12-30T03:47:28.073Z,0.70
2023-12-30T03:48:28.313Z,0.50
2023-12-30T03:49:28.099Z,0.60
2023-12-30T03:50:28.155Z,0.50
2023-12-30T03:51:27.858Z,0.80
2023-12-30T03:52:27.925Z,0.70
2023-12-30T03:53:27.845Z,0.50
2023-12-30T03:54:27.817Z,0.50
2023-12-30T03:55:27.846Z,0.90
2023-12-30T03:56:27.830Z,0.40
2023-12-30T03:57:27.773Z,0.50
2023-12-30T03:58:27.874Z,0.50
2023-12-30T03:59:27.748Z,0.40
2023-12-30T04:00:27.749Z,0.50
2023-12-30T04:01:27.826Z,0.50
2023-12-30T04:02:27.939Z,0.50
2023-12-30T04:03:27.878Z,0.80
2023-12-30T04:04:27.748Z,0.60
2023-12-30T04:05:27.720Z,0.60
2023-12-30T04:06:27.672Z,0.60
2023-12-30T04:07:27.859Z,0.50
2023-12-30T04:08:27.785Z,0.50
2023-12-30T04:09:27.708Z,0.50
2023-12-30T04:10:27.698Z,0.70
2023-12-30T04:11:27.738Z,0.80
2023-12-30T04:12:27.681Z,0.50
2023-12-30T04:13:27.671Z,0.60
2023-12-30T04:14:27.710Z,0.50
2023-12-30T04:15:27.684Z,0.60
2023-12-30T04:16:27.681Z,0.60
2023-12-30T04:17:27.676Z,0.40
2023-12-30T04:18:27.598Z,0.40
2023-12-30T04:19:27.704Z,0.50
2023-12-30T04:20:27.595Z,0.40
2023-12-30T04:21:27.689Z,0.70
2023-12-30T04:22:27.562Z,0.60
2023-12-30T04:23:27.597Z,0.50
2023-12-30T04:24:27.522Z,0.50
2023-12-30T04:25:27.721Z,0.80
2023-12-30T04:26:27.601Z,0.60
2023-12-30T04:27:27.658Z,0.60
2023-12-30T04:28:27.530Z,0.60
2023-12-30T04:29:27.464Z,0.30
2023-12-30T04:30:27.623Z,0.70
2023-12-30T04:31:27.644Z,0.50
2023-12-30T04:32:27.738Z,0.70
2023-12-30T04:33:27.532Z,0.60
2023-12-30T04:34:27.441Z,0.60
2023-12-30T04:35:27.488Z,0.80
2023-12-30T04:36:27.430Z,0.60
2023-12-30T04:37:27.460Z,0.60
2023-12-30T04:38:27.498Z,0.50
2023-12-30T04:39:27.377Z,0.80
2023-12-30T04:40:27.440Z,0.50
2023-12-30T04:41:27.339Z,0.60
2023-12-30T04:42:27.393Z,0.70
2023-12-30T04:43:27.453Z,0.60
2023-12-30T04:44:27.330Z,0.60
2023-12-30T04:45:27.426Z,0.60
2023-12-30T04:46:27.333Z,0.60
2023-12-30T04:47:27.448Z,0.70
2023-12-30T04:48:27.294Z,0.50
2023-12-30T04:49:27.349Z,0.70
2023-12-30T04:50:27.384Z,0.50
2023-12-30T04:51:27.447Z,0.60
2023-12-30T04:52:27.274Z,0.90
2023-12-30T04:53:27.210Z,0.60
2023-12-30T04:54:27.243Z,0.60
2023-12-30T04:55:27.396Z,0.50
2023-12-30T04:56:27.306Z,0.80
2023-12-30T04:57:27.288Z,0.50
2023-12-30T04:58:27.238Z,0.70
2023-12-30T04:59:27.207Z,0.80
2023-12-30T05:00:27.215Z,0.80
2023-12-30T05:01:27.271Z,0.60
2023-12-30T05:02:27.158Z,0.70
2023-12-30T05:03:27.218Z,0.70
2023-12-30T05:04:27.134Z,0.80
2023-12-30T05:05:27.102Z,0.70
2023-12-30T05:06:27.084Z,0.60
2023-12-30T05:07:27.124Z,0.70
2023-12-30T05:08:27.137Z,0.60
2023-12-30T05:09:27.011Z,0.70
2023-12-30T05:10:27.058Z,0.60
2023-12-30T05:11:27.044Z,0.80
2023-12-30T05:12:27.071Z,0.60
2023-12-30T05:13:27.096Z,0.50
2023-12-30T05:14:27.107Z,0.60
2023-12-30T05:15:26.987Z,0.70
2023-12-30T05:16:27.049Z,0.80
2023-12-30T05:17:27.091Z,0.50
2023-12-30T05:18:27.150Z,0.70
2023-12-30T05:19:27.141Z,0.50
2023-12-30T05:20:26.947Z,0.50
2023-12-30T05:21:27.028Z,0.80
2023-12-30T05:22:26.920Z,0.60
2023-12-30T05:23:26.868Z,0.60
2023-12-30T05:24:26.988Z,0.50
2023-12-30T05:25:26.908Z,0.60
2023-12-30T05:26:27.012Z,0.70
2023-12-30T05:27:26.998Z,0.90
2023-12-30T05:28:26.843Z,0.50
2023-12-30T05:29:26.993Z,0.70
2023-12-30T05:30:26.975Z,0.70
2023-12-30T05:31:26.881Z,0.50
2023-12-30T05:32:26.821Z,0.70
2023-12-30T05:33:26.871Z,0.90
2023-12-30T05:34:26.959Z,0.70
2023-12-30T05:35:26.758Z,0.50
2023-12-30T05:36:26.883Z,0.90
2023-12-30T05:37:26.791Z,0.70
2023-12-30T05:38:26.799Z,0.60
2023-12-30T05:39:26.832Z,0.60
2023-12-30T05:40:26.844Z,0.50
2023-12-30T05:41:26.786Z,0.80
2023-12-30T05:42:26.747Z,0.60
2023-12-30T05:43:27.354Z,0.60
2023-12-30T05:44:26.882Z,0.70
2023-12-30T05:45:26.778Z,0.70
2023-12-30T05:46:26.674Z,0.80
2023-12-30T05:47:26.658Z,0.70
2023-12-30T05:48:26.728Z,0.70
2023-12-30T05:49:26.666Z,0.60
2023-12-30T05:50:26.648Z,0.60
2023-12-30T05:51:26.626Z,0.60
2023-12-30T05:52:26.627Z,0.70
2023-12-30T05:53:26.564Z,0.90
2023-12-30T05:54:26.575Z,0.70
2023-12-30T05:55:26.600Z,0.80
2023-12-30T05:56:26.708Z,0.70
2023-12-30T05:57:26.524Z,0.80
2023-12-30T05:58:26.622Z,0.60
2023-12-30T05:59:26.532Z,0.90
2023-12-30T06:00:26.577Z,0.90
2023-12-30T06:01:26.630Z,0.60
2023-12-30T06:02:26.660Z,0.60
2023-12-30T06:03:26.517Z,0.80
2023-12-30T06:04:26.469Z,0.80
2023-12-30T06:05:26.589Z,0.70
2023-12-30T06:06:27.175Z,0.70
2023-12-30T06:07:26.485Z,0.80
2023-12-30T06:08:26.714Z,0.80
2023-12-30T06:09:26.506Z,0.70
2023-12-30T06:10:33.241Z,0.70
2023-12-30T06:11:26.551Z,0.60
2023-12-30T06:12:26.594Z,0.70
2023-12-30T06:13:26.427Z,1.20
2023-12-30T06:14:26.507Z,0.90
2023-12-30T06:15:26.382Z,0.70
2023-12-30T06:16:26.405Z,0.70
2023-12-30T06:17:26.485Z,0.70
2023-12-30T06:18:26.497Z,0.70
2023-12-30T06:19:26.346Z,0.70
2023-12-30T06:20:26.458Z,0.70
2023-12-30T06:21:26.339Z,0.80
2023-12-30T06:22:26.480Z,0.70
2023-12-30T06:23:26.474Z,0.70
2023-12-30T06:24:26.311Z,0.70
2023-12-30T06:25:26.386Z,0.90
2023-12-30T06:26:26.434Z,0.70
2023-12-30T06:27:26.304Z,0.60
2023-12-30T06:28:26.351Z,0.70
2023-12-30T06:29:27.056Z,0.70
2023-12-30T06:30:26.295Z,0.60
2023-12-30T06:31:26.754Z,0.60
2023-12-30T06:32:26.417Z,0.80
2023-12-30T06:33:26.458Z,0.70
2023-12-30T06:34:26.429Z,0.70
2023-12-30T06:35:26.198Z,0.80
2023-12-30T06:36:26.297Z,0.60
2023-12-30T06:37:26.334Z,0.70
2023-12-30T06:38:26.459Z,0.60
2023-12-30T06:39:26.304Z,0.60
2023-12-30T06:40:26.272Z,0.60
2023-12-30T06:41:26.310Z,0.50
2023-12-30T06:42:26.334Z,0.80
2023-12-30T06:43:26.258Z,0.80
2023-12-30T06:44:26.298Z,0.80
2023-12-30T06:45:26.184Z,0.60
2023-12-30T06:46:26.321Z,0.70
2023-12-30T06:47:26.214Z,1.10
2023-12-30T06:48:26.854Z,0.80
2023-12-30T06:49:26.243Z,0.80
2023-12-30T06:50:26.805Z,0.70
2023-12-30T06:51:26.330Z,1.10
2023-12-30T06:52:26.216Z,0.80
2023-12-30T06:53:26.159Z,0.70
2023-12-30T06:54:26.227Z,0.90
2023-12-30T06:55:31.948Z,0.90
2023-12-30T06:56:26.204Z,0.80
2023-12-30T06:57:26.214Z,0.80
2023-12-30T06:58:26.290Z,0.90
2023-12-30T06:59:25.838Z,0.80
2023-12-30T07:00:25.830Z,0.70
2023-12-30T07:01:26.118Z,0.80
2023-12-30T07:02:25.888Z,0.60
2023-12-30T07:03:26.033Z,0.60
2023-12-30T07:04:26.109Z,0.90
2023-12-30T07:05:25.797Z,0.70
2023-12-30T07:06:26.239Z,0.60
2023-12-30T07:07:25.821Z,0.60
2023-12-30T07:08:26.071Z,0.70
2023-12-30T07:09:26.213Z,0.90
2023-12-30T07:10:25.748Z,0.70
2023-12-30T07:11:25.780Z,0.80
2023-12-30T07:12:25.721Z,0.90
2023-12-30T07:13:25.758Z,0.80
2023-12-30T07:14:25.823Z,1.00
2023-12-30T07:15:25.803Z,0.80
2023-12-30T07:16:25.791Z,0.90
2023-12-30T07:17:25.669Z,0.70
2023-12-30T07:18:25.808Z,0.90
2023-12-30T07:19:25.865Z,0.90
2023-12-30T07:20:25.696Z,0.80
2023-12-30T07:21:25.662Z,0.90
2023-12-30T07:22:25.673Z,0.90
2023-12-30T07:23:25.707Z,0.90
2023-12-30T07:24:25.604Z,0.80
2023-12-30T07:25:25.599Z,0.70
2023-12-30T07:26:25.606Z,1.00
2023-12-30T07:27:25.638Z,0.90
2023-12-30T07:28:25.658Z,0.90
2023-12-30T07:29:25.509Z,0.70
2023-12-30T07:30:25.617Z,0.90
2023-12-30T07:31:25.533Z,0.80
2023-12-30T07:32:25.633Z,0.90
2023-12-30T07:33:25.609Z,0.80
2023-12-30T07:34:25.593Z,0.80
2023-12-30T07:35:25.598Z,0.80
2023-12-30T07:36:25.455Z,0.90
2023-12-30T07:37:25.650Z,0.80
2023-12-30T07:38:25.494Z,0.80
2023-12-30T07:39:25.413Z,1.00
2023-12-30T07:40:25.475Z,0.90
2023-12-30T07:41:25.425Z,1.00
2023-12-30T07:42:25.486Z,0.90
2023-12-30T07:43:25.729Z,1.00
2023-12-30T07:44:25.524Z,1.00
2023-12-30T07:45:25.345Z,0.80
2023-12-30T07:46:25.393Z,0.90
2023-12-30T07:47:25.417Z,1.10
2023-12-30T07:48:25.396Z,1.00
2023-12-30T07:49:25.640Z,0.80
2023-12-30T07:50:25.452Z,0.90
2023-12-30T07:51:25.346Z,0.80
2023-12-30T07:52:25.326Z,0.80
2023-12-30T07:53:25.325Z,1.00
2023-12-30T07:54:25.255Z,1.40
2023-12-30T07:55:25.301Z,0.90
2023-12-30T07:56:25.322Z,1.00
2023-12-30T07:57:25.456Z,0.90
2023-12-30T07:58:25.242Z,1.20
2023-12-30T07:59:25.255Z,1.00
2023-12-30T08:00:25.293Z,1.10
2023-12-30T08:01:25.285Z,1.00
2023-12-30T08:02:25.277Z,1.10
2023-12-30T08:03:25.265Z,0.90
2023-12-30T08:04:25.206Z,0.80
2023-12-30T08:05:25.236Z,1.00
2023-12-30T08:06:25.168Z,0.90
2023-12-30T08:07:25.218Z,0.90
2023-12-30T08:08:25.437Z,0.90
2023-12-30T08:09:25.108Z,0.80
2023-12-30T08:10:25.345Z,1.00
2023-12-30T08:11:25.238Z,1.00
2023-12-30T08:12:25.312Z,1.10
2023-12-30T08:13:25.170Z,0.80
2023-12-30T08:14:25.203Z,0.90
2023-12-30T08:15:25.107Z,1.20
2023-12-30T08:16:25.115Z,0.90
2023-12-30T08:17:25.098Z,0.90
2023-12-30T08:18:25.114Z,0.90
2023-12-30T08:19:25.073Z,1.00
2023-12-30T08:20:25.068Z,0.80
2023-12-30T08:21:25.055Z,0.80
2023-12-30T08:22:25.077Z,0.70
2023-12-30T08:23:25.189Z,0.90
2023-12-30T08:24:24.989Z,0.90
2023-12-30T08:25:25.090Z,1.00
2023-12-30T08:26:25.135Z,0.90
2023-12-30T08:27:25.145Z,1.00
2023-12-30T08:28:25.133Z,0.90
2023-12-30T08:29:24.976Z,0.90
2023-12-30T08:30:24.966Z,0.90
2023-12-30T08:31:24.940Z,0.90
2023-12-30T08:32:25.030Z,0.90
2023-12-30T08:33:25.255Z,0.60
2023-12-30T08:34:24.888Z,1.10
2023-12-30T08:35:24.849Z,1.00
2023-12-30T08:36:24.902Z,1.00
2023-12-30T08:37:25.027Z,1.00
2023-12-30T08:38:25.017Z,0.90
2023-12-30T08:39:24.960Z,1.00
2023-12-30T08:40:24.970Z,1.00
2023-12-30T08:41:24.931Z,1.00
2023-12-30T08:42:24.916Z,0.80
2023-12-30T08:43:24.801Z,0.70
2023-12-30T08:44:24.978Z,1.10
2023-12-30T08:45:24.764Z,0.90
2023-12-30T08:46:24.948Z,1.10
2023-12-30T08:47:25.035Z,1.10
2023-12-30T08:48:24.970Z,0.90
2023-12-30T08:49:24.922Z,0.90
2023-12-30T08:50:24.890Z,1.00
2023-12-30T08:51:24.795Z,0.90
2023-12-30T08:52:24.902Z,1.00
2023-12-30T08:53:24.665Z,1.10
2023-12-30T08:54:24.704Z,1.00
2023-12-30T08:55:24.737Z,0.90
2023-12-30T08:56:25.848Z,0.90
2023-12-30T08:57:24.612Z,0.80
2023-12-30T08:58:24.796Z,0.90
2023-12-30T08:59:24.876Z,0.80
2023-12-30T09:00:24.685Z,1.30
2023-12-30T09:01:24.872Z,1.00
2023-12-30T09:02:24.800Z,0.90
2023-12-30T09:03:24.623Z,0.90
2023-12-30T09:04:24.746Z,0.90
2023-12-30T09:05:24.771Z,0.80
2023-12-30T09:06:24.650Z,0.80
2023-12-30T09:07:24.603Z,0.90
2023-12-30T09:08:24.565Z,0.90
2023-12-30T09:09:24.604Z,0.90
2023-12-30T09:10:24.513Z,0.90
2023-12-30T09:11:24.594Z,1.00
2023-12-30T09:12:24.573Z,0.80
2023-12-30T09:13:24.531Z,0.90
2023-12-30T09:14:24.579Z,1.00
2023-12-30T09:15:24.925Z,0.90
2023-12-30T09:16:24.716Z,1.00
2023-12-30T09:17:24.579Z,0.90
2023-12-30T09:18:24.628Z,0.90
2023-12-30T09:19:24.700Z,0.90
2023-12-30T09:20:24.477Z,0.80
2023-12-30T09:21:24.494Z,0.70
2023-12-30T09:22:24.474Z,0.90
2023-12-30T09:23:24.570Z,0.80
2023-12-30T09:24:24.459Z,0.90
2023-12-30T09:25:24.456Z,0.90
2023-12-30T09:26:24.427Z,1.00
2023-12-30T09:27:24.341Z,0.90
2023-12-30T09:28:24.418Z,0.90
2023-12-30T09:29:33.746Z,0.80
2023-12-30T09:30:35.835Z,0.90
2023-12-30T09:32:37.578Z,0.90
2023-12-30T09:33:38.308Z,1.00
2023-12-30T09:34:42.106Z,1.10
2023-12-30T09:35:38.227Z,1.00
2023-12-30T09:36:38.166Z,1.00
2023-12-30T09:37:38.405Z,1.30
2023-12-30T09:38:38.211Z,0.90
2023-12-30T09:39:38.185Z,1.00
2023-12-30T09:40:38.521Z,0.90
2023-12-30T09:41:38.115Z,1.10
2023-12-30T09:42:38.136Z,1.10
2023-12-30T09:43:38.239Z,1.00
2023-12-30T09:44:38.412Z,1.00
2023-12-30T09:45:38.107Z,1.10
2023-12-30T09:46:41.063Z,1.10
2023-12-30T09:47:38.221Z,1.00
2023-12-30T09:48:38.309Z,0.70
2023-12-30T09:49:38.321Z,1.10
2023-12-30T09:50:37.984Z,0.90
2023-12-30T09:51:38.288Z,1.00
2023-12-30T09:52:38.116Z,0.90
2023-12-30T09:53:38.245Z,0.90
2023-12-30T09:54:45.092Z,1.00
2023-12-30T09:55:38.170Z,0.90
2023-12-30T09:56:37.969Z,0.80
2023-12-30T09:57:38.056Z,1.10
2023-12-30T09:58:38.027Z,0.90
2023-12-30T09:59:37.922Z,1.10
2023-12-30T10:00:40.975Z,1.20
2023-12-30T10:01:40.727Z,0.90
2023-12-30T10:02:37.879Z,0.90
2023-12-30T10:03:37.956Z,0.90
2023-12-30T10:04:37.916Z,0.90
2023-12-30T10:05:37.962Z,0.90
2023-12-30T10:06:37.863Z,1.00
2023-12-30T10:07:38.089Z,0.90
2023-12-30T10:08:37.983Z,1.10
2023-12-30T10:09:37.843Z,0.90
2023-12-30T10:10:58.608Z,0.90
2023-12-30T10:11:37.794Z,1.00
2023-12-30T10:12:37.812Z,1.10
2023-12-30T10:13:37.878Z,1.10
2023-12-30T10:14:37.729Z,0.90
2023-12-30T10:15:37.725Z,1.10
2023-12-30T10:16:37.891Z,1.10
2023-12-30T10:17:37.806Z,1.20
2023-12-30T10:18:37.798Z,0.90
2023-12-30T10:19:38.038Z,1.20
2023-12-30T10:20:37.672Z,1.00
2023-12-30T10:21:37.755Z,1.20
2023-12-30T10:22:37.729Z,1.10
2023-12-30T10:23:37.716Z,1.00
2023-12-30T10:24:37.818Z,1.00
2023-12-30T10:25:38.018Z,1.20
2023-12-30T10:26:37.632Z,1.10
2023-12-30T10:27:37.698Z,0.90
2023-12-30T10:28:37.686Z,1.20
2023-12-30T10:29:46.860Z,0.80
2023-12-30T10:30:37.938Z,1.10
2023-12-30T10:31:37.933Z,0.90
2023-12-30T10:32:37.667Z,1.10
2023-12-30T10:33:37.881Z,1.10
2023-12-30T10:34:37.609Z,1.10
2023-12-30T10:35:37.676Z,1.10
2023-12-30T10:36:38.050Z,1.10
2023-12-30T10:37:37.686Z,1.00
2023-12-30T10:38:37.706Z,0.90
2023-12-30T10:39:37.617Z,0.90
2023-12-30T10:40:37.617Z,1.00
2023-12-30T10:41:37.575Z,1.00
2023-12-30T10:42:37.433Z,0.80
2023-12-30T10:43:37.637Z,1.10
2023-12-30T10:44:37.414Z,1.00
2023-12-30T10:45:37.458Z,1.00
2023-12-30T10:46:37.454Z,1.10
2023-12-30T10:47:37.508Z,0.90
2023-12-30T10:48:37.559Z,1.00
2023-12-30T10:49:37.623Z,0.80
2023-12-30T10:50:37.363Z,0.90
2023-12-30T10:51:37.349Z,1.00
2023-12-30T10:52:37.498Z,0.90
2023-12-30T10:53:37.591Z,1.10
2023-12-30T10:54:37.365Z,1.00
2023-12-30T10:58:05.896Z,0.90
2023-12-30T10:58:11.433Z,1.00
2023-12-30T10:59:11.443Z,0.90
2023-12-30T11:00:11.526Z,1.10
2023-12-30T11:01:11.519Z,0.90
2023-12-30T11:02:11.389Z,1.10
2023-12-30T11:03:11.401Z,1.10
2023-12-30T11:04:11.451Z,1.20
2023-12-30T11:05:11.587Z,1.10
2023-12-30T11:06:11.432Z,1.00
2023-12-30T11:07:11.387Z,0.90
2023-12-30T11:08:11.318Z,1.40
2023-12-30T11:09:11.248Z,1.10
2023-12-30T11:10:11.298Z,1.20
2023-12-30T11:11:11.226Z,1.20
2023-12-30T11:12:11.304Z,1.10
2023-12-30T11:13:11.314Z,1.10
2023-12-30T11:14:11.236Z,1.00
2023-12-30T11:15:11.183Z,1.10
2023-12-30T11:16:11.263Z,1.30
2023-12-30T11:17:11.228Z,1.20
2023-12-30T11:18:11.320Z,1.10
2023-12-30T11:19:11.354Z,1.10
2023-12-30T11:20:11.501Z,1.20
2023-12-30T11:22:11.556Z,1.00
2023-12-30T11:23:11.154Z,1.20
2023-12-30T11:24:11.136Z,1.20
2023-12-30T11:25:11.199Z,1.10
2023-12-30T11:26:11.188Z,1.10
2023-12-30T11:27:11.076Z,1.00
2023-12-30T11:28:11.115Z,1.00
2023-12-30T11:29:11.101Z,1.00
2023-12-30T11:30:11.119Z,1.20
2023-12-30T11:31:11.185Z,1.20
2023-12-30T11:32:11.015Z,1.10
2023-12-30T11:33:11.238Z,1.30
2023-12-30T11:34:11.197Z,1.10
2023-12-30T11:35:10.987Z,1.00
2023-12-30T11:36:11.078Z,1.10
2023-12-30T11:37:11.093Z,0.90
2023-12-30T11:38:10.999Z,1.10
2023-12-30T11:39:11.030Z,0.90
2023-12-30T11:40:11.117Z,1.40
2023-12-30T11:41:10.952Z,1.10
2023-12-30T11:42:11.039Z,1.70
2023-12-30T11:43:10.995Z,1.00
2023-12-30T11:44:10.919Z,1.20
2023-12-30T11:45:20.165Z,0.80
2023-12-30T11:46:20.233Z,1.00
2023-12-30T11:47:21.368Z,1.00
2023-12-30T11:48:21.331Z,1.20
2023-12-30T11:49:18.941Z,1.20
2023-12-30T11:50:18.694Z,1.00
2023-12-30T11:51:21.294Z,1.20
2023-12-30T11:52:11.020Z,1.00
2023-12-30T11:53:11.006Z,1.20
2023-12-30T11:54:22.485Z,1.20
2023-12-30T11:55:11.089Z,1.20
2023-12-30T11:56:20.128Z,1.20
2023-12-30T11:57:20.156Z,0.90
2023-12-30T11:58:10.874Z,0.90
2023-12-30T11:59:11.034Z,1.10
2023-12-30T12:00:10.789Z,1.40
2023-12-30T12:01:22.457Z,1.20
2023-12-30T12:02:18.681Z,1.10
2023-12-30T12:03:10.870Z,1.20
2023-12-30T12:04:10.895Z,1.30
2023-12-30T12:05:10.812Z,1.10
2023-12-30T12:06:10.811Z,1.10
2023-12-30T12:07:10.695Z,1.00
2023-12-30T12:08:10.639Z,1.10
2023-12-30T12:09:10.629Z,1.00
2023-12-30T12:10:10.874Z,1.20
2023-12-30T12:11:10.654Z,1.30
2023-12-30T12:12:10.692Z,1.00
2023-12-30T12:13:10.922Z,1.10
2023-12-30T12:14:10.597Z,1.60
2023-12-30T12:15:10.623Z,1.10
2023-12-30T12:16:10.706Z,1.30
2023-12-30T12:17:10.620Z,1.20
2023-12-30T12:18:10.745Z,1.00
2023-12-30T12:19:11.170Z,1.30
2023-12-30T12:20:21.764Z,1.30
2023-12-30T12:21:10.769Z,1.40
2023-12-30T12:22:10.882Z,1.20
2023-12-30T12:23:10.552Z,1.20
2023-12-30T12:24:10.567Z,1.20
2023-12-30T12:25:10.590Z,1.00
2023-12-30T12:26:10.470Z,1.20
2023-12-30T12:27:11.202Z,1.30
2023-12-30T12:28:10.656Z,1.10
2023-12-30T12:29:10.502Z,1.10
2023-12-30T12:30:10.569Z,1.20
2023-12-30T12:31:10.516Z,1.10
2023-12-30T12:32:10.433Z,1.10
2023-12-30T12:33:10.532Z,1.10
2023-12-30T12:34:10.465Z,1.00
2023-12-30T12:35:10.660Z,1.30
2023-12-30T12:36:10.558Z,1.20
2023-12-30T12:37:10.687Z,1.10
2023-12-30T12:38:10.478Z,1.10
2023-12-30T12:39:11.706Z,0.90
2023-12-30T12:40:10.446Z,1.00
2023-12-30T12:41:10.334Z,1.10
2023-12-30T12:42:18.795Z,1.00
2023-12-30T12:43:10.499Z,1.30
2023-12-30T12:44:10.311Z,1.10
2023-12-30T12:45:10.319Z,1.00
2023-12-30T12:46:10.459Z,0.90
2023-12-30T12:47:19.558Z,1.10
2023-12-30T12:48:20.656Z,1.20
2023-12-30T12:49:10.415Z,1.00
2023-12-30T12:50:10.315Z,1.00
2023-12-30T12:51:10.399Z,1.10
2023-12-30T12:52:10.249Z,1.00
2023-12-30T12:53:10.698Z,1.10
2023-12-30T12:54:10.283Z,1.10
2023-12-30T12:55:10.242Z,1.00
2023-12-30T12:56:10.193Z,1.10
2023-12-30T12:57:10.220Z,1.10
2023-12-30T12:58:10.290Z,1.00
2023-12-30T12:59:10.196Z,1.10
2023-12-30T13:00:10.138Z,1.00
2023-12-30T13:01:10.187Z,1.00
2023-12-30T13:02:10.206Z,1.00
2023-12-30T13:03:10.526Z,1.00
2023-12-30T13:04:10.248Z,1.20
2023-12-30T13:05:10.316Z,0.90
2023-12-30T13:06:10.206Z,1.10
2023-12-30T13:07:10.130Z,1.00
2023-12-30T13:08:10.102Z,1.00
2023-12-30T13:09:10.138Z,1.20
2023-12-30T13:10:10.090Z,1.00
2023-12-30T13:11:10.051Z,1.00
2023-12-30T13:12:10.016Z,1.00
2023-12-30T13:13:10.151Z,0.90
2023-12-30T13:14:09.975Z,1.20
2023-12-30T13:15:09.993Z,1.20
2023-12-30T13:16:10.174Z,1.10
2023-12-30T13:17:10.123Z,1.00
2023-12-30T13:18:10.234Z,0.90
2023-12-30T13:19:10.012Z,1.10
2023-12-30T13:20:09.886Z,0.90
2023-12-30T13:21:10.095Z,1.10
2023-12-30T13:22:09.990Z,1.00
2023-12-30T13:23:09.953Z,1.10
2023-12-30T13:24:09.857Z,1.10
2023-12-30T13:25:09.992Z,1.10
2023-12-30T13:26:10.195Z,1.00
2023-12-30T13:27:09.969Z,1.00
2023-12-30T13:28:10.066Z,1.10
2023-12-30T13:29:10.053Z,1.40
2023-12-30T13:30:09.807Z,1.20
2023-12-30T13:31:12.086Z,1.00
2023-12-30T13:32:09.916Z,1.20
2023-12-30T13:33:09.862Z,1.20
2023-12-30T13:34:09.949Z,1.40
2023-12-30T13:35:09.984Z,0.90